createdAt,value
2023-04-16T00:00:00.765Z,10.02
2023-04-16T00:02:03.038Z,10.40
2023-04-16T00:03:57.217Z,11.18
2023-04-16T00:05:39.018Z,11.61
2023-04-16T00:07:18.097Z,10.48
2023-04-16T00:08:52.766Z,9.67
2023-04-16T00:10:26.196Z,10.00
2023-04-16T00:12:11.134Z,10.95
2023-04-16T00:13:33.121Z,10.39
2023-04-16T00:15:04.712Z,10.07
2023-04-16T00:16:45.655Z,11.04
2023-04-16T00:18:21.444Z,10.79
2023-04-16T00:19:54.481Z,10.86
2023-04-16T00:21:39.746Z,10.39
2023-04-16T00:23:25.589Z,11.08
2023-04-16T00:25:19.126Z,10.81
2023-04-16T00:27:04.050Z,10.80
2023-04-16T00:28:40.330Z,11.38
2023-04-16T00:30:26.796Z,11.88
2023-04-16T00:32:07.575Z,11.12
2023-04-16T00:33:42.912Z,12.18
2023-04-16T00:35:27.376Z,11.15
2023-04-16T00:36:49.588Z,11.89
2023-04-16T00:38:35.298Z,12.02
2023-04-16T00:40:10.962Z,12.84
2023-04-16T00:41:56.139Z,12.25
2023-04-16T00:43:41.148Z,12.25
2023-04-16T00:45:22.125Z,12.66
2023-04-16T00:47:17.097Z,12.82
2023-04-16T00:49:02.195Z,12.18
2023-04-16T00:50:47.826Z,12.42
2023-04-16T00:52:28.656Z,12.21
2023-04-16T00:54:10.744Z,12.54
2023-04-16T00:55:44.540Z,12.68
2023-04-16T00:57:27.226Z,12.59
2023-04-16T00:58:51.206Z,12.96
2023-04-16T01:00:43.628Z,13.00
2023-04-16T01:02:29.069Z,12.89
2023-04-16T01:04:01.677Z,13.09
2023-04-16T01:05:35.539Z,14.63
2023-04-16T01:07:16.148Z,14.45
2023-04-16T01:09:01.678Z,14.53
2023-04-16T01:10:34.822Z,15.02
2023-04-16T01:12:24.696Z,14.29
2023-04-16T01:13:48.089Z,15.02
2023-04-16T01:15:33.069Z,15.44
2023-04-16T01:17:20.538Z,14.34
2023-04-16T01:18:48.381Z,14.08
2023-04-16T01:20:09.951Z,14.15
2023-04-16T01:21:39.322Z,14.23
2023-04-16T01:23:24.326Z,14.92
2023-04-16T01:25:17.740Z,15.77
2023-04-16T01:27:03.172Z,16.02
2023-04-16T01:28:49.036Z,14.88
2023-04-16T01:30:34.389Z,14.82
2023-04-16T01:32:26.415Z,14.71
2023-04-16T01:34:02.322Z,16.34
2023-04-16T01:35:53.177Z,15.40
2023-04-16T01:37:38.643Z,16.48
2023-04-16T01:39:19.394Z,15.79
2023-04-16T01:41:04.645Z,15.65
2023-04-16T01:42:46.052Z,15.55
2023-04-16T01:44:30.932Z,14.21
2023-04-16T01:46:25.031Z,14.90
2023-04-16T01:48:02.206Z,14.53
2023-04-16T01:49:36.178Z,15.32
2023-04-16T01:51:00.679Z,15.09
2023-04-16T01:52:41.783Z,15.74
2023-04-16T01:54:04.298Z,15.31
2023-04-16T01:55:39.904Z,15.05
2023-04-16T01:57:14.253Z,14.76
2023-04-16T01:58:49.862Z,15.92
2023-04-16T02:00:21.038Z,16.26
2023-04-16T02:01:43.749Z,14.90
2023-04-16T02:03:06.130Z,15.70
2023-04-16T02:04:34.182Z,15.72
2023-04-16T02:06:24.169Z,16.16
2023-04-16T02:07:53.873Z,16.22
2023-04-16T02:09:39.022Z,14.90
2023-04-16T02:11:02.526Z,15.57
2023-04-16T02:12:39.676Z,15.04
2023-04-16T02:14:25.545Z,15.59
2023-04-16T02:16:04.514Z,16.31
2023-04-16T02:18:07.996Z,16.21
2023-04-16T02:19:54.288Z,15.99
2023-04-16T02:21:43.870Z,16.24
2023-04-16T02:23:27.088Z,14.97
2023-04-16T02:24:53.156Z,15.19
2023-04-16T02:26:24.339Z,15.92
2023-04-16T02:27:58.478Z,15.62
2023-04-16T02:29:49.442Z,15.95
2023-04-16T02:31:23.717Z,16.55
2023-04-16T02:33:04.871Z,16.43
2023-04-16T02:34:27.671Z,15.94
2023-04-16T02:36:13.105Z,15.59
2023-04-16T02:37:57.724Z,15.82
2023-04-16T02:39:42.912Z,15.51
2023-04-16T02:41:23.379Z,15.49
2023-04-16T02:42:57.850Z,16.04
2023-04-16T02:44:34.380Z,16.11
2023-04-16T02:46:04.468Z,16.93
2023-04-16T02:47:38.433Z,16.36
2023-04-16T02:49:23.943Z,16.64
2023-04-16T02:50:50.950Z,16.89
2023-04-16T02:52:27.229Z,17.30
2023-04-16T02:54:20.104Z,17.87
2023-04-16T02:55:54.294Z,17.85
2023-04-16T02:57:28.077Z,19.20
2023-04-16T02:59:04.354Z,19.62
2023-04-16T03:00:50.145Z,18.73
2023-04-16T03:02:14.551Z,18.26
2023-04-16T03:04:07.337Z,18.10
2023-04-16T03:05:56.164Z,17.84
2023-04-16T03:07:41.461Z,18.25
2023-04-16T03:09:15.182Z,17.19
2023-04-16T03:10:48.711Z,17.58
2023-04-16T03:12:24.645Z,17.72
2023-04-16T03:14:01.012Z,16.96
2023-04-16T03:15:42.297Z,17.61
2023-04-16T03:17:20.432Z,17.16
2023-04-16T03:18:45.153Z,16.71
2023-04-16T03:20:11.545Z,16.96
2023-04-16T03:22:02.242Z,16.55
2023-04-16T03:23:51.228Z,17.58
2023-04-16T03:25:16.777Z,17.41
2023-04-16T03:27:02.896Z,17.04
2023-04-16T03:28:36.211Z,17.28
2023-04-16T03:30:20.587Z,16.89
2023-04-16T03:32:02.236Z,17.01
2023-04-16T03:33:34.273Z,16.82
2023-04-16T03:35:24.254Z,16.98
2023-04-16T03:37:09.712Z,18.20
2023-04-16T03:38:43.947Z,17.72
2023-04-16T03:40:29.366Z,19.02
2023-04-16T03:42:03.068Z,17.52
2023-04-16T03:43:39.468Z,16.87
2023-04-16T03:45:16.568Z,17.19
2023-04-16T03:46:57.735Z,17.15
2023-04-16T03:48:31.426Z,16.74
2023-04-16T03:50:16.404Z,17.41
2023-04-16T03:51:50.329Z,17.16
2023-04-16T03:53:23.774Z,109.20
2023-04-16T03:55:14.362Z,45.02
2023-04-16T03:57:02.130Z,18.62
2023-04-16T03:58:38.781Z,17.37
2023-04-16T04:00:14.685Z,17.43
2023-04-16T04:01:36.544Z,17.48
2023-04-16T04:03:22.760Z,17.94
2023-04-16T04:04:57.816Z,17.86
2023-04-16T04:06:33.747Z,18.46
2023-04-16T04:07:58.615Z,17.98
2023-04-16T04:09:43.878Z,17.13
2023-04-16T04:11:24.494Z,16.54
2023-04-16T04:13:10.929Z,16.83
2023-04-16T04:14:53.061Z,17.73
2023-04-16T04:16:28.502Z,17.25
2023-04-16T04:18:13.190Z,16.93
2023-04-16T04:21:35.704Z,17.69
2023-04-16T04:23:23.693Z,16.19
2023-04-16T04:25:10.188Z,16.65
2023-04-16T04:27:02.729Z,16.71
2023-04-16T04:28:54.724Z,17.11
2023-04-16T04:30:40.183Z,17.83
2023-04-16T04:32:25.449Z,17.62
2023-04-16T04:33:55.755Z,17.54
2023-04-16T04:35:29.673Z,17.53
2023-04-16T04:37:04.016Z,17.03
2023-04-16T04:38:38.012Z,16.68
2023-04-16T04:40:22.962Z,16.80
2023-04-16T04:41:59.754Z,16.65
2023-04-16T04:43:34.563Z,17.39
2023-04-16T04:45:19.727Z,17.03
2023-04-16T04:46:44.613Z,17.05
2023-04-16T04:48:32.723Z,17.51
2023-04-16T04:50:06.592Z,16.63
2023-04-16T04:51:41.180Z,16.24
2023-04-16T04:53:23.240Z,17.04
2023-04-16T04:54:47.735Z,16.94
2023-04-16T04:56:21.695Z,18.62
2023-04-16T04:57:58.043Z,18.44
2023-04-16T04:59:32.328Z,17.68
2023-04-16T05:01:05.986Z,17.27
2023-04-16T05:02:39.641Z,17.73
2023-04-16T05:04:04.564Z,17.13
2023-04-16T05:05:38.216Z,17.55
2023-04-16T05:07:19.272Z,16.95
2023-04-16T05:08:55.331Z,18.16
2023-04-16T05:10:30.272Z,18.22
2023-04-16T05:12:17.600Z,16.56
2023-04-16T05:13:53.892Z,17.87
2023-04-16T05:15:28.116Z,17.19
2023-04-16T05:17:14.358Z,16.39
2023-04-16T05:19:00.722Z,16.61
2023-04-16T05:20:38.027Z,16.49
2023-04-16T05:22:23.126Z,17.86
2023-04-16T05:23:45.387Z,17.54
2023-04-16T05:25:31.365Z,17.58
2023-04-16T05:27:04.465Z,17.46
2023-04-16T05:28:38.554Z,17.05
2023-04-16T05:30:19.148Z,17.72
2023-04-16T05:31:55.516Z,17.55
2023-04-16T05:33:40.961Z,17.60
2023-04-16T05:35:17.208Z,19.51
2023-04-16T05:36:40.487Z,20.71
2023-04-16T05:38:21.100Z,20.21
2023-04-16T05:40:09.183Z,20.30
2023-04-16T05:41:43.002Z,19.48
2023-04-16T05:43:28.688Z,17.76
2023-04-16T05:44:53.544Z,17.83
2023-04-16T05:46:39.078Z,17.04
2023-04-16T05:48:15.326Z,17.94
2023-04-16T05:50:01.148Z,18.97
2023-04-16T05:51:25.448Z,17.81
2023-04-16T05:52:59.208Z,18.41
2023-04-16T05:54:52.898Z,18.62
2023-04-16T05:56:33.801Z,16.82
2023-04-16T05:58:05.876Z,18.00
2023-04-16T06:00:00.109Z,17.46
2023-04-16T06:01:35.498Z,18.27
2023-04-16T06:02:57.495Z,16.96
2023-04-16T06:04:38.567Z,18.74
2023-04-16T06:06:15.490Z,17.78
2023-04-16T06:08:04.545Z,18.19
2023-04-16T06:09:37.948Z,16.95
2023-04-16T06:11:13.522Z,17.61
2023-04-16T06:12:50.761Z,17.55
2023-04-16T06:14:26.295Z,18.79
2023-04-16T06:16:03.574Z,17.63
2023-04-16T06:17:49.060Z,18.77
2023-04-16T06:19:22.870Z,18.25
2023-04-16T06:20:56.351Z,19.81
2023-04-16T06:22:29.807Z,18.47
2023-04-16T06:24:04.084Z,18.36
2023-04-16T06:25:30.116Z,18.49
2023-04-16T06:27:10.971Z,18.62
2023-04-16T06:28:52.441Z,17.73
2023-04-16T06:30:25.628Z,19.31
2023-04-16T06:32:07.032Z,19.22
2023-04-16T06:33:43.735Z,19.81
2023-04-16T06:35:24.934Z,19.17
2023-04-16T06:37:20.142Z,18.65
2023-04-16T06:39:01.493Z,18.80
2023-04-16T06:40:23.524Z,18.19
2023-04-16T06:42:04.566Z,18.30
2023-04-16T06:43:49.785Z,18.64
2023-04-16T06:45:34.911Z,19.42
2023-04-16T06:47:14.839Z,18.80
2023-04-16T06:48:53.106Z,18.56
2023-04-16T06:50:27.226Z,18.76
2023-04-16T06:52:12.866Z,18.49
2023-04-16T06:53:48.006Z,18.62
2023-04-16T06:55:21.646Z,18.24
2023-04-16T06:56:55.371Z,18.42
2023-04-16T06:58:29.304Z,18.45
2023-04-16T07:00:02.584Z,18.40
2023-04-16T07:01:38.596Z,18.57
2023-04-16T07:03:12.530Z,18.82
2023-04-16T07:05:07.885Z,18.56
2023-04-16T07:07:01.542Z,16.82
2023-04-16T07:08:57.108Z,16.72
2023-04-16T07:10:38.602Z,17.15
2023-04-16T07:12:12.301Z,16.45
2023-04-16T07:14:06.725Z,17.17
2023-04-16T07:15:53.212Z,17.00
2023-04-16T07:17:26.419Z,17.52
2023-04-16T07:19:02.505Z,16.93
2023-04-16T07:20:36.217Z,18.00
2023-04-16T07:22:10.232Z,16.99
2023-04-16T07:23:52.234Z,16.64
2023-04-16T07:25:21.447Z,16.72
2023-04-16T07:27:03.771Z,17.22
2023-04-16T07:28:37.316Z,17.23
2023-04-16T07:30:09.780Z,17.02
2023-04-16T07:31:43.636Z,16.59
2023-04-16T07:33:16.724Z,17.37
2023-04-16T07:34:57.891Z,16.74
2023-04-16T07:36:21.727Z,17.01
2023-04-16T07:37:58.005Z,16.20
2023-04-16T07:39:51.827Z,16.56
2023-04-16T07:41:13.413Z,16.18
2023-04-16T07:42:47.450Z,17.08
2023-04-16T07:44:27.851Z,17.14
2023-04-16T07:46:00.490Z,17.99
2023-04-16T07:47:41.847Z,17.79
2023-04-16T07:49:22.353Z,18.24
2023-04-16T07:51:00.495Z,17.62
2023-04-16T07:52:45.628Z,15.48
2023-04-16T07:54:21.410Z,16.51
2023-04-16T07:55:57.114Z,16.35
2023-04-16T07:57:44.474Z,16.83
2023-04-16T07:59:23.601Z,16.79
2023-04-16T08:00:58.339Z,16.42
2023-04-16T08:02:20.506Z,17.38
2023-04-16T08:03:43.275Z,17.06
2023-04-16T08:05:07.918Z,16.96
2023-04-16T08:06:32.472Z,17.10
2023-04-16T08:08:13.322Z,16.93
2023-04-16T08:12:01.492Z,19.88
2023-04-16T08:13:46.889Z,20.93
2023-04-16T08:15:08.562Z,25.89
2023-04-16T08:16:42.563Z,21.06
2023-04-16T08:18:16.234Z,18.18
2023-04-16T08:20:06.130Z,20.40
2023-04-16T08:21:51.774Z,34.85
2023-04-16T08:23:36.818Z,25.85
2023-04-16T08:25:01.992Z,19.74
2023-04-16T08:26:50.039Z,20.71
2023-04-16T08:28:25.484Z,23.68
2023-04-16T08:29:49.899Z,19.03
2023-04-16T08:31:25.641Z,18.99
2023-04-16T08:33:10.706Z,17.34
2023-04-16T08:34:44.679Z,18.99
2023-04-16T08:36:29.727Z,18.61
2023-04-16T08:37:54.270Z,17.16
2023-04-16T08:39:25.534Z,17.51
2023-04-16T08:41:20.157Z,21.61
2023-04-16T08:42:44.511Z,19.58
2023-04-16T08:44:13.765Z,46.39
2023-04-16T08:46:00.458Z,30.21
2023-04-16T08:47:36.423Z,26.76
2023-04-16T08:49:00.764Z,22.20
2023-04-16T08:50:35.054Z,20.93
2023-04-16T08:52:11.241Z,19.71
2023-04-16T08:54:05.190Z,17.42
2023-04-16T08:55:36.981Z,15.59
2023-04-16T08:57:17.714Z,37.24
2023-04-16T08:59:11.509Z,93.04
2023-04-16T09:00:46.385Z,72.13
2023-04-16T09:02:19.882Z,29.59
2023-04-16T09:04:14.280Z,29.16
2023-04-16T09:06:09.156Z,16.04
2023-04-16T09:07:56.089Z,16.79
2023-04-16T09:09:46.338Z,25.61
2023-04-16T09:11:31.453Z,30.78
2023-04-16T09:13:16.478Z,19.96
2023-04-16T09:15:02.911Z,15.01
2023-04-16T09:16:36.645Z,16.14
2023-04-16T09:18:21.339Z,24.84
2023-04-16T09:19:57.312Z,18.04
2023-04-16T09:21:50.738Z,15.28
2023-04-16T09:23:26.408Z,17.31
2023-04-16T09:25:07.147Z,16.37
2023-04-16T09:26:53.220Z,16.07
2023-04-16T09:28:38.163Z,14.32
2023-04-16T09:30:23.253Z,20.02
2023-04-16T09:32:18.261Z,22.44
2023-04-16T09:33:55.822Z,14.92
2023-04-16T09:35:17.347Z,13.60
2023-04-16T09:36:53.693Z,14.53
2023-04-16T09:38:38.640Z,14.09
2023-04-16T09:40:21.065Z,14.07
2023-04-16T09:41:55.264Z,13.92
2023-04-16T09:43:39.827Z,14.14
2023-04-16T09:45:14.166Z,14.39
2023-04-16T09:46:55.025Z,15.98
2023-04-16T09:48:30.601Z,18.20
2023-04-16T09:50:04.534Z,16.72
2023-04-16T09:51:27.045Z,16.66
2023-04-16T09:53:01.048Z,14.76
2023-04-16T09:54:46.668Z,14.19
2023-04-16T09:56:22.152Z,14.39
2023-04-16T09:58:01.281Z,13.99
2023-04-16T09:59:34.205Z,14.20
2023-04-16T10:01:18.998Z,14.53
2023-04-16T10:03:04.744Z,14.19
2023-04-16T10:04:52.420Z,14.55
2023-04-16T10:06:27.183Z,13.63
2023-04-16T10:08:12.922Z,14.04
2023-04-16T10:10:01.751Z,14.02
2023-04-16T10:11:35.124Z,14.33
2023-04-16T10:13:20.098Z,13.15
2023-04-16T10:14:44.801Z,13.51
2023-04-16T10:16:19.325Z,13.32
2023-04-16T10:17:55.159Z,13.39
2023-04-16T10:19:40.079Z,12.70
2023-04-16T10:21:24.989Z,13.02
2023-04-16T10:22:58.655Z,12.94
2023-04-16T10:24:32.274Z,13.12
2023-04-16T10:26:08.075Z,11.61
2023-04-16T10:27:43.432Z,11.77
2023-04-16T10:29:21.380Z,11.12
2023-04-16T10:30:55.309Z,11.63
2023-04-16T10:32:28.722Z,11.77
2023-04-16T10:34:06.506Z,11.16
2023-04-16T10:36:04.756Z,11.92
2023-04-16T10:37:52.359Z,11.77
2023-04-16T10:39:37.626Z,12.66
2023-04-16T10:41:02.016Z,12.71
2023-04-16T10:42:35.056Z,12.38
2023-04-16T10:44:19.251Z,12.05
2023-04-16T10:46:04.800Z,11.40
2023-04-16T10:47:45.595Z,11.59
2023-04-16T10:49:19.106Z,11.73
2023-04-16T10:51:00.066Z,11.63
2023-04-16T10:52:45.141Z,10.85
2023-04-16T10:54:29.741Z,10.28
2023-04-16T10:56:23.377Z,10.75
2023-04-16T10:57:50.161Z,10.92
2023-04-16T10:59:18.897Z,10.96
2023-04-16T11:01:06.077Z,11.13
2023-04-16T11:02:39.701Z,10.91
2023-04-16T11:04:08.712Z,11.25
2023-04-16T11:06:02.731Z,10.90
2023-04-16T11:07:36.094Z,11.01
2023-04-16T11:09:21.065Z,10.99
2023-04-16T11:10:57.073Z,10.76
2023-04-16T11:12:32.638Z,11.20
2023-04-16T11:14:14.921Z,11.10
2023-04-16T11:15:58.953Z,10.94
2023-04-16T11:17:31.706Z,10.29
2023-04-16T11:19:05.206Z,10.50
2023-04-16T11:20:34.613Z,9.79
2023-04-16T11:22:06.403Z,9.77
2023-04-16T11:23:39.520Z,9.77
2023-04-16T11:25:13.033Z,10.73
2023-04-16T11:26:58.047Z,10.20
2023-04-16T11:28:21.998Z,13.19
2023-04-16T11:29:55.758Z,10.24
2023-04-16T11:31:40.962Z,10.80
2023-04-16T11:33:16.485Z,9.92
2023-04-16T11:34:48.014Z,9.42
2023-04-16T11:36:26.152Z,9.33
2023-04-16T11:37:49.698Z,9.38
2023-04-16T11:39:11.309Z,9.63
2023-04-16T11:40:56.975Z,10.16
2023-04-16T11:42:42.438Z,9.05
2023-04-16T11:44:27.880Z,8.79
2023-04-16T11:48:03.873Z,8.95
2023-04-16T11:49:50.081Z,8.98
2023-04-16T11:51:24.066Z,9.69
2023-04-16T11:52:57.950Z,9.38
2023-04-16T11:54:48.292Z,9.26
2023-04-16T11:56:32.926Z,9.51
2023-04-16T11:58:20.137Z,9.72
2023-04-16T12:00:07.433Z,11.64
2023-04-16T12:01:56.139Z,11.74
2023-04-16T12:03:41.601Z,12.25
2023-04-16T12:05:17.519Z,11.44
2023-04-16T12:06:53.600Z,11.52
2023-04-16T12:08:26.713Z,11.47
2023-04-16T12:09:53.375Z,12.27
2023-04-16T12:11:34.150Z,11.76
2023-04-16T12:13:15.641Z,11.92
2023-04-16T12:14:49.866Z,11.91
2023-04-16T12:16:26.197Z,11.76
2023-04-16T12:18:02.590Z,13.15
2023-04-16T12:19:35.914Z,12.65
2023-04-16T12:21:11.640Z,12.51
2023-04-16T12:22:57.068Z,12.19
2023-04-16T12:24:38.053Z,12.57
2023-04-16T12:26:19.691Z,12.72
2023-04-16T12:28:08.009Z,12.88
2023-04-16T12:29:41.382Z,13.35
2023-04-16T12:31:14.952Z,12.23
2023-04-16T12:32:44.858Z,12.62
2023-04-16T12:34:20.186Z,12.55
2023-04-16T12:36:14.064Z,11.65
2023-04-16T12:37:36.128Z,11.51
2023-04-16T12:39:02.509Z,11.79
2023-04-16T12:40:35.831Z,10.83
2023-04-16T12:42:16.405Z,11.22
2023-04-16T12:44:00.705Z,11.73
2023-04-16T12:45:24.803Z,11.05
2023-04-16T12:47:05.774Z,11.52
2023-04-16T12:48:50.776Z,11.12
2023-04-16T12:50:35.757Z,11.26
2023-04-16T12:52:16.240Z,11.21
2023-04-16T12:54:01.856Z,11.30
2023-04-16T12:55:48.440Z,11.07
2023-04-16T12:57:33.328Z,10.58
2023-04-16T12:59:27.216Z,10.92
2023-04-16T13:01:03.262Z,10.60
2023-04-16T13:02:32.498Z,10.76
2023-04-16T13:04:24.262Z,10.57
2023-04-16T13:06:06.974Z,10.17
2023-04-16T13:07:39.930Z,10.25
2023-04-16T13:09:13.365Z,10.40
2023-04-16T13:10:57.485Z,9.58
2023-04-16T13:12:42.869Z,10.18
2023-04-16T13:14:27.833Z,10.42
2023-04-16T13:16:22.196Z,10.13
2023-04-16T13:18:07.721Z,9.90
2023-04-16T13:19:37.272Z,9.79
2023-04-16T13:21:13.150Z,10.05
2023-04-16T13:22:58.661Z,10.56
2023-04-16T13:24:42.255Z,10.87
2023-04-16T13:26:17.945Z,11.05
2023-04-16T13:28:03.223Z,11.25
2023-04-16T13:29:36.633Z,11.81
2023-04-16T13:31:21.974Z,11.24
2023-04-16T13:33:07.554Z,10.83
2023-04-16T13:34:52.261Z,10.86
2023-04-16T13:36:37.671Z,11.02
2023-04-16T13:38:13.450Z,9.82
2023-04-16T13:39:57.458Z,10.47
2023-04-16T13:41:37.469Z,10.93
2023-04-16T13:43:22.208Z,11.49
2023-04-16T13:44:55.820Z,9.77
2023-04-16T13:46:36.747Z,10.16
2023-04-16T13:48:21.650Z,9.89
2023-04-16T13:50:07.106Z,11.01
2023-04-16T13:52:00.589Z,10.29
2023-04-16T13:53:33.974Z,9.86
2023-04-16T13:55:20.716Z,10.72
2023-04-16T13:56:50.546Z,10.37
2023-04-16T13:58:31.176Z,10.25
2023-04-16T14:00:26.086Z,9.88
2023-04-16T14:02:13.711Z,11.22
2023-04-16T14:04:05.661Z,10.68
2023-04-16T14:05:41.492Z,11.91
2023-04-16T14:07:10.520Z,11.72
2023-04-16T14:08:44.472Z,10.80
2023-04-16T14:10:17.436Z,11.48
2023-04-16T14:12:11.240Z,11.21
2023-04-16T14:13:56.711Z,11.36
2023-04-16T14:15:22.332Z,11.27
2023-04-16T14:17:07.474Z,11.95
2023-04-16T14:18:48.297Z,11.37
2023-04-16T14:20:33.362Z,10.26
2023-04-16T14:22:18.248Z,10.36
2023-04-16T14:23:52.161Z,10.29
2023-04-16T14:25:36.896Z,10.17
2023-04-16T14:27:08.666Z,10.91
2023-04-16T14:28:53.881Z,11.81
2023-04-16T14:30:26.979Z,10.76
2023-04-16T14:32:04.058Z,12.34
2023-04-16T14:33:37.342Z,11.45
2023-04-16T14:35:22.007Z,10.23
2023-04-16T14:36:56.112Z,9.98
2023-04-16T14:38:31.666Z,9.51
2023-04-16T14:40:17.735Z,10.20
2023-04-16T14:41:59.673Z,9.80
2023-04-16T14:43:46.361Z,9.92
2023-04-16T14:45:19.974Z,10.38
2023-04-16T14:46:53.780Z,10.34
2023-04-16T14:48:38.409Z,10.38
2023-04-16T14:50:12.056Z,10.54
2023-04-16T14:51:47.782Z,10.39
2023-04-16T14:53:28.563Z,10.98
2023-04-16T14:55:10.800Z,10.43
2023-04-16T14:57:04.450Z,9.59
2023-04-16T14:58:57.370Z,9.84
2023-04-16T15:00:42.128Z,10.13
2023-04-16T15:02:17.653Z,10.59
2023-04-16T15:04:11.443Z,10.75
2023-04-16T15:05:56.496Z,10.94
2023-04-16T15:07:31.903Z,10.62
2023-04-16T15:08:54.281Z,10.46
2023-04-16T15:10:34.925Z,10.49
2023-04-16T15:12:05.944Z,10.87
2023-04-16T15:13:39.715Z,10.53
2023-04-16T15:15:13.317Z,10.99
2023-04-16T15:16:57.376Z,10.27
2023-04-16T15:18:42.901Z,10.72
2023-04-16T15:20:26.906Z,10.19
2023-04-16T15:22:12.517Z,10.84
2023-04-16T15:23:58.390Z,10.72
2023-04-16T15:25:30.332Z,10.64
2023-04-16T15:27:02.009Z,9.88
2023-04-16T15:28:33.124Z,10.24
2023-04-16T15:30:22.247Z,10.55
2023-04-16T15:32:17.069Z,10.75
2023-04-16T15:34:11.098Z,10.33
2023-04-16T15:35:57.079Z,10.33
2023-04-16T15:37:43.276Z,10.12
2023-04-16T15:39:28.206Z,9.97
2023-04-16T15:41:01.739Z,9.76
2023-04-16T15:42:46.718Z,10.39
2023-04-16T15:44:17.336Z,9.98
2023-04-16T15:46:05.222Z,9.75
2023-04-16T15:47:58.932Z,9.77
2023-04-16T15:49:53.185Z,9.60
2023-04-16T15:51:33.792Z,10.86
2023-04-16T15:53:07.158Z,10.83
2023-04-16T15:54:40.898Z,10.43
2023-04-16T15:56:13.720Z,10.48
2023-04-16T15:57:47.676Z,10.64
2023-04-16T15:59:20.865Z,11.07
2023-04-16T16:00:58.706Z,10.88
2023-04-16T16:02:31.906Z,10.96
2023-04-16T16:04:05.686Z,11.10
2023-04-16T16:05:40.404Z,11.38
2023-04-16T16:07:22.456Z,11.28
2023-04-16T16:08:56.696Z,11.74
2023-04-16T16:10:18.892Z,11.90
2023-04-16T16:12:00.220Z,10.82
2023-04-16T16:13:53.629Z,11.16
2023-04-16T16:15:39.476Z,11.46
2023-04-16T16:17:22.435Z,11.50
2023-04-16T16:18:55.890Z,11.79
2023-04-16T16:20:40.749Z,10.94
2023-04-16T16:22:23.500Z,11.74
2023-04-16T16:24:05.608Z,12.03
2023-04-16T16:25:58.512Z,10.63
2023-04-16T16:27:43.341Z,10.13
2023-04-16T16:29:28.215Z,10.71
2023-04-16T16:31:12.980Z,10.42
2023-04-16T16:32:58.553Z,10.74
2023-04-16T16:34:51.602Z,10.48
2023-04-16T16:36:36.584Z,11.17
2023-04-16T16:38:21.613Z,10.96
2023-04-16T16:40:09.601Z,10.05
2023-04-16T16:41:54.908Z,10.50
2023-04-16T16:43:30.028Z,10.91
2023-04-16T16:45:18.122Z,10.75
2023-04-16T16:47:03.226Z,10.63
2023-04-16T16:48:32.279Z,10.70
2023-04-16T16:50:21.656Z,11.28
2023-04-16T16:52:03.637Z,10.42
2023-04-16T16:53:39.100Z,11.46
2023-04-16T16:55:10.965Z,11.13
2023-04-16T16:56:46.986Z,11.14
2023-04-16T16:58:31.557Z,10.75
2023-04-16T17:00:11.320Z,10.91
2023-04-16T17:01:44.650Z,10.84
2023-04-16T17:03:20.421Z,11.44
2023-04-16T17:05:07.845Z,11.04
2023-04-16T17:06:52.927Z,11.36
2023-04-16T17:08:28.157Z,11.04
2023-04-16T17:10:13.294Z,11.54
2023-04-16T17:11:49.566Z,11.71
2023-04-16T17:13:34.418Z,11.99
2023-04-16T17:15:21.442Z,11.48
2023-04-16T17:17:02.365Z,12.26
2023-04-16T17:18:47.389Z,12.12
2023-04-16T17:20:32.461Z,11.89
2023-04-16T17:22:14.889Z,12.40
2023-04-16T17:24:08.454Z,12.34
2023-04-16T17:25:55.465Z,12.95
2023-04-16T17:27:44.967Z,13.04
2023-04-16T17:29:26.043Z,12.70
2023-04-16T17:30:50.665Z,12.62
2023-04-16T17:32:24.097Z,12.43
2023-04-16T17:34:10.629Z,12.81
2023-04-16T17:35:32.470Z,11.63
2023-04-16T17:37:06.027Z,12.45
2023-04-16T17:38:52.347Z,13.31
2023-04-16T17:40:25.470Z,13.00
2023-04-16T17:42:01.202Z,13.43
2023-04-16T17:43:34.366Z,13.54
2023-04-16T17:44:56.434Z,14.50
2023-04-16T17:46:29.825Z,14.10
2023-04-16T17:48:10.986Z,13.77
2023-04-16T17:49:46.760Z,14.07
2023-04-16T17:51:22.073Z,14.15
2023-04-16T17:53:07.704Z,13.76
2023-04-16T17:55:01.661Z,13.77
2023-04-16T17:56:50.772Z,14.81
2023-04-16T17:58:35.719Z,13.94
2023-04-16T18:00:12.358Z,15.02
2023-04-16T18:01:46.004Z,14.80
2023-04-16T18:03:24.480Z,14.55
2023-04-16T18:04:50.112Z,14.41
2023-04-16T18:06:26.416Z,15.29
2023-04-16T18:08:07.781Z,14.35
2023-04-16T18:09:53.416Z,14.02
2023-04-16T18:11:22.162Z,15.24
2023-04-16T18:12:57.043Z,14.37
2023-04-16T18:14:31.671Z,15.16
2023-04-16T18:16:16.471Z,15.44
2023-04-16T18:17:58.175Z,15.27
2023-04-16T18:19:43.576Z,15.83
2023-04-16T18:21:17.547Z,15.91
2023-04-16T18:23:02.772Z,15.42
2023-04-16T18:24:56.322Z,14.55
2023-04-16T18:26:22.961Z,14.31
2023-04-16T18:28:18.226Z,14.09
2023-04-16T18:29:45.343Z,14.84
2023-04-16T18:31:30.752Z,14.98
2023-04-16T18:33:42.797Z,15.21
2023-04-16T18:35:17.198Z,14.09
2023-04-16T18:37:10.842Z,14.72
2023-04-16T18:39:05.431Z,15.05
2023-04-16T18:40:59.120Z,14.65
2023-04-16T18:42:43.966Z,15.15
2023-04-16T18:44:10.764Z,16.28
2023-04-16T18:45:57.016Z,17.26
2023-04-16T18:47:21.108Z,16.76
2023-04-16T18:48:45.443Z,16.46
2023-04-16T18:50:30.260Z,15.96
2023-04-16T18:52:15.522Z,15.51
2023-04-16T18:54:01.240Z,15.64
2023-04-16T18:55:36.499Z,15.41
2023-04-16T18:57:21.900Z,14.92
2023-04-16T18:59:12.442Z,15.37
2023-04-16T19:00:46.673Z,15.30
2023-04-16T19:02:18.088Z,15.03
2023-04-16T19:03:42.535Z,15.71
2023-04-16T19:05:27.702Z,15.69
2023-04-16T19:07:01.618Z,15.12
2023-04-16T19:08:47.288Z,15.53
2023-04-16T19:10:32.373Z,14.92
2023-04-16T19:12:05.863Z,14.16
2023-04-16T19:13:39.212Z,14.68
2023-04-16T19:15:20.158Z,15.34
2023-04-16T19:16:53.952Z,16.05
2023-04-16T19:18:29.204Z,15.57
2023-04-16T19:20:23.539Z,16.51
2023-04-16T19:21:49.309Z,15.92
2023-04-16T19:23:23.251Z,14.96
2023-04-16T19:24:50.009Z,15.63
2023-04-16T19:26:16.030Z,15.90
2023-04-16T19:28:01.614Z,15.90
2023-04-16T19:29:54.917Z,16.03
2023-04-16T19:31:30.552Z,18.57
2023-04-16T19:33:06.273Z,21.47
2023-04-16T19:34:40.047Z,21.26
2023-04-16T19:36:24.978Z,21.76
2023-04-16T19:37:59.839Z,20.59
2023-04-16T19:39:33.131Z,20.93
2023-04-16T19:41:18.368Z,18.54
2023-04-16T19:42:52.190Z,18.48
2023-04-16T19:44:36.943Z,19.21
2023-04-16T19:46:22.573Z,18.05
2023-04-16T19:48:16.294Z,18.49
2023-04-16T19:49:59.147Z,18.08
2023-04-16T19:51:33.754Z,17.94
2023-04-16T19:53:28.155Z,18.55
2023-04-16T19:54:50.712Z,17.99
2023-04-16T19:56:24.001Z,17.99
2023-04-16T19:58:01.868Z,17.99
2023-04-16T19:59:32.648Z,18.11
2023-04-16T20:00:56.389Z,19.45
2023-04-16T20:02:32.621Z,19.29
2023-04-16T20:04:26.360Z,18.88
2023-04-16T20:06:08.035Z,18.62
2023-04-16T20:07:42.112Z,19.02
2023-04-16T20:09:27.458Z,19.41
2023-04-16T20:11:18.299Z,19.49
2023-04-16T20:12:54.473Z,19.45
2023-04-16T20:14:27.489Z,19.04
2023-04-16T20:16:13.365Z,18.93
2023-04-16T20:17:54.544Z,19.63
2023-04-16T20:19:40.847Z,18.82
2023-04-16T20:21:14.536Z,18.94
2023-04-16T20:22:48.178Z,18.81
2023-04-16T20:24:23.781Z,19.85
2023-04-16T20:26:01.969Z,18.53
2023-04-16T20:27:35.480Z,19.48
2023-04-16T20:29:11.962Z,20.22
2023-04-16T20:31:05.649Z,20.14
2023-04-16T20:32:50.517Z,19.97
2023-04-16T20:34:31.342Z,20.41
2023-04-16T20:36:16.444Z,19.59
2023-04-16T20:37:57.510Z,19.61
2023-04-16T20:39:31.992Z,18.63
2023-04-16T20:41:20.985Z,18.14
2023-04-16T20:42:56.530Z,18.44
2023-04-16T20:44:50.030Z,18.49
2023-04-16T20:48:32.141Z,19.25
2023-04-16T20:50:05.586Z,19.45
2023-04-16T20:51:29.393Z,19.75
2023-04-16T20:55:06.226Z,19.15
2023-04-16T20:56:47.372Z,18.01
2023-04-16T20:58:11.622Z,18.43
2023-04-16T20:59:36.896Z,18.25
2023-04-16T21:01:10.453Z,18.55
2023-04-16T21:02:41.828Z,17.98
2023-04-16T21:04:26.627Z,17.43
2023-04-16T21:05:53.840Z,18.01
2023-04-16T21:07:22.701Z,17.92
2023-04-16T21:08:52.225Z,17.28
2023-04-16T21:10:20.054Z,16.97
2023-04-16T21:11:56.007Z,15.79
2023-04-16T21:13:26.829Z,16.90
2023-04-16T21:14:53.795Z,15.62
2023-04-16T21:16:39.091Z,16.12
2023-04-16T21:18:23.695Z,15.23
2023-04-16T21:20:08.699Z,15.57
2023-04-16T21:21:30.770Z,15.94
2023-04-16T21:23:04.895Z,16.53
2023-04-16T21:24:38.160Z,16.18
2023-04-16T21:26:05.218Z,16.19
2023-04-16T21:27:58.390Z,18.93